sensor_id;sensor_type;location;lat;lon;timestamp;temperature;humidity
9323;DHT22;4700;48.822;9.270;2023-05-20T00:01:56;11.30;1.00
9323;DHT22;4700;48.822;9.270;2023-05-20T00:04:49;11.20;1.00
9323;DHT22;4700;48.822;9.270;2023-05-20T00:07:35;11.20;1.00
9323;DHT22;4700;48.822;9.270;2023-05-20T00:10:21;11.00;1.00
9323;DHT22;4700;48.822;9.270;2023-05-20T00:13:06;11.20;1.00
9323;DHT22;4700;48.822;9.270;2023-05-20T00:15:52;11.20;1.00
9323;DHT22;4700;48.822;9.270;2023-05-20T00:18:38;11.20;1.00
9323;DHT22;4700;48.822;9.270;2023-05-20T00:21:25;11.30;1.00
9323;DHT22;4700;48.822;9.270;2023-05-20T00:24:11;11.30;1.00
9323;DHT22;4700;48.822;9.270;2023-05-20T00:26:57;11.40;1.00
9323;DHT22;4700;48.822;9.270;2023-05-20T00:29:42;11.30;1.00
9323;DHT22;4700;48.822;9.270;2023-05-20T00:32:29;11.40;1.00
9323;DHT22;4700;48.822;9.270;2023-05-20T00:35:15;11.50;1.00
9323;DHT22;4700;48.822;9.270;2023-05-20T00:38:02;11.50;1.00
9323;DHT22;4700;48.822;9.270;2023-05-20T00:40:48;11.50;1.00
9323;DHT22;4700;48.822;9.270;2023-05-20T00:43:33;11.70;1.00
9323;DHT22;4700;48.822;9.270;2023-05-20T00:46:19;11.70;1.00
9323;DHT22;4700;48.822;9.270;2023-05-20T00:49:05;11.90;1.00
9323;DHT22;4700;48.822;9.270;2023-05-20T00:51:51;11.90;1.00
9323;DHT22;4700;48.822;9.270;2023-05-20T00:54:39;11.90;1.00
9323;DHT22;4700;48.822;9.270;2023-05-20T00:57:25;12.00;1.00
9323;DHT22;4700;48.822;9.270;2023-05-20T01:00:11;12.00;1.00
9323;DHT22;4700;48.822;9.270;2023-05-20T01:02:58;12.10;1.00
9323;DHT22;4700;48.822;9.270;2023-05-20T01:05:45;12.10;1.00
9323;DHT22;4700;48.822;9.270;2023-05-20T01:08:30;12.10;1.00
9323;DHT22;4700;48.822;9.270;2023-05-20T01:11:25;12.10;1.00
9323;DHT22;4700;48.822;9.270;2023-05-20T01:14:12;12.10;1.00
9323;DHT22;4700;48.822;9.270;2023-05-20T01:17:01;12.10;1.00
9323;DHT22;4700;48.822;9.270;2023-05-20T01:19:53;12.10;1.00
9323;DHT22;4700;48.822;9.270;2023-05-20T01:22:48;12.10;1.00
9323;DHT22;4700;48.822;9.270;2023-05-20T01:25:34;12.10;1.00
9323;DHT22;4700;48.822;9.270;2023-05-20T01:28:20;12.10;1.00
9323;DHT22;4700;48.822;9.270;2023-05-20T01:31:11;12.20;1.00
9323;DHT22;4700;48.822;9.270;2023-05-20T01:33:58;12.20;1.00
9323;DHT22;4700;48.822;9.270;2023-05-20T01:36:45;12.30;1.00
9323;DHT22;4700;48.822;9.270;2023-05-20T01:39:34;12.30;1.00
9323;DHT22;4700;48.822;9.270;2023-05-20T01:42:22;12.30;1.00
9323;DHT22;4700;48.822;9.270;2023-05-20T01:45:09;12.20;1.00
9323;DHT22;4700;48.822;9.270;2023-05-20T01:47:54;12.20;1.00
9323;DHT22;4700;48.822;9.270;2023-05-20T01:50:40;12.10;1.00
9323;DHT22;4700;48.822;9.270;2023-05-20T01:53:26;12.00;1.00
9323;DHT22;4700;48.822;9.270;2023-05-20T01:56:13;12.00;1.00
9323;DHT22;4700;48.822;9.270;2023-05-20T01:58:59;12.10;1.00
9323;DHT22;4700;48.822;9.270;2023-05-20T02:01:45;11.80;1.00
9323;DHT22;4700;48.822;9.270;2023-05-20T02:04:31;11.70;1.00
9323;DHT22;4700;48.822;9.270;2023-05-20T02:07:17;11.80;1.00
9323;DHT22;4700;48.822;9.270;2023-05-20T02:10:03;11.70;1.00
9323;DHT22;4700;48.822;9.270;2023-05-20T02:12:51;11.60;1.00
9323;DHT22;4700;48.822;9.270;2023-05-20T02:15:40;11.30;1.00
9323;DHT22;4700;48.822;9.270;2023-05-20T02:18:25;11.10;1.00
9323;DHT22;4700;48.822;9.270;2023-05-20T02:21:12;11.50;1.00
9323;DHT22;4700;48.822;9.270;2023-05-20T02:23:58;11.50;1.00
9323;DHT22;4700;48.822;9.270;2023-05-20T02:26:45;11.50;1.00
9323;DHT22;4700;48.822;9.270;2023-05-20T02:29:35;11.50;1.00
9323;DHT22;4700;48.822;9.270;2023-05-20T02:32:21;11.50;1.00
9323;DHT22;4700;48.822;9.270;2023-05-20T02:35:11;11.60;1.00
9323;DHT22;4700;48.822;9.270;2023-05-20T02:38:00;11.60;1.00
9323;DHT22;4700;48.822;9.270;2023-05-20T02:40:46;11.70;1.00
9323;DHT22;4700;48.822;9.270;2023-05-20T02:43:32;11.70;1.00
9323;DHT22;4700;48.822;9.270;2023-05-20T02:46:21;11.60;1.00
9323;DHT22;4700;48.822;9.270;2023-05-20T02:49:06;11.60;1.00
9323;DHT22;4700;48.822;9.270;2023-05-20T02:51:52;11.60;1.00
9323;DHT22;4700;48.822;9.270;2023-05-20T02:54:40;11.50;1.00
9323;DHT22;4700;48.822;9.270;2023-05-20T03:00:13;11.50;1.00
9323;DHT22;4700;48.822;9.270;2023-05-20T03:03:00;11.40;1.00
9323;DHT22;4700;48.822;9.270;2023-05-20T03:05:46;11.60;1.00
9323;DHT22;4700;48.822;9.270;2023-05-20T03:08:33;11.40;1.00
9323;DHT22;4700;48.822;9.270;2023-05-20T03:11:19;11.40;1.00
9323;DHT22;4700;48.822;9.270;2023-05-20T03:14:05;11.40;1.00
9323;DHT22;4700;48.822;9.270;2023-05-20T03:16:52;11.40;1.00
9323;DHT22;4700;48.822;9.270;2023-05-20T03:19:41;11.40;1.00
9323;DHT22;4700;48.822;9.270;2023-05-20T03:22:33;11.30;1.00
9323;DHT22;4700;48.822;9.270;2023-05-20T03:25:20;11.30;1.00
9323;DHT22;4700;48.822;9.270;2023-05-20T03:28:07;11.30;1.00
9323;DHT22;4700;48.822;9.270;2023-05-20T03:30:53;11.30;1.00
9323;DHT22;4700;48.822;9.270;2023-05-20T03:33:39;11.20;1.00
9323;DHT22;4700;48.822;9.270;2023-05-20T03:36:26;11.20;1.00
9323;DHT22;4700;48.822;9.270;2023-05-20T03:39:12;11.20;1.00
9323;DHT22;4700;48.822;9.270;2023-05-20T03:41:58;11.20;1.00
9323;DHT22;4700;48.822;9.270;2023-05-20T03:44:44;11.10;1.00
9323;DHT22;4700;48.822;9.270;2023-05-20T03:50:16;11.10;1.00
9323;DHT22;4700;48.822;9.270;2023-05-20T03:55:50;11.10;1.00
9323;DHT22;4700;48.822;9.270;2023-05-20T04:01:22;11.20;1.00
9323;DHT22;4700;48.822;9.270;2023-05-20T04:06:46;11.20;1.00
9323;DHT22;4700;48.822;9.270;2023-05-20T04:12:19;11.30;1.00
9323;DHT22;4700;48.822;9.270;2023-05-20T04:15:06;11.30;1.00
9323;DHT22;4700;48.822;9.270;2023-05-20T04:17:54;11.40;1.00
9323;DHT22;4700;48.822;9.270;2023-05-20T04:20:40;11.70;1.00
9323;DHT22;4700;48.822;9.270;2023-05-20T04:23:25;11.50;1.00
9323;DHT22;4700;48.822;9.270;2023-05-20T04:26:13;11.70;1.00
9323;DHT22;4700;48.822;9.270;2023-05-20T04:28:59;11.90;1.00
9323;DHT22;4700;48.822;9.270;2023-05-20T04:31:45;12.00;1.00
9323;DHT22;4700;48.822;9.270;2023-05-20T04:34:31;12.10;1.00
9323;DHT22;4700;48.822;9.270;2023-05-20T04:37:18;12.20;1.00
9323;DHT22;4700;48.822;9.270;2023-05-20T04:40:05;12.30;1.00
9323;DHT22;4700;48.822;9.270;2023-05-20T04:42:54;12.40;1.00
9323;DHT22;4700;48.822;9.270;2023-05-20T04:45:41;12.60;1.00
9323;DHT22;4700;48.822;9.270;2023-05-20T04:48:27;12.60;1.00
9323;DHT22;4700;48.822;9.270;2023-05-20T04:51:13;12.80;1.00
9323;DHT22;4700;48.822;9.270;2023-05-20T04:53:59;13.00;1.00
9323;DHT22;4700;48.822;9.270;2023-05-20T04:56:45;13.00;1.00
9323;DHT22;4700;48.822;9.270;2023-05-20T04:59:32;13.30;1.00
9323;DHT22;4700;48.822;9.270;2023-05-20T05:02:18;13.60;1.00
9323;DHT22;4700;48.822;9.270;2023-05-20T05:05:05;14.20;1.00
9323;DHT22;4700;48.822;9.270;2023-05-20T05:07:51;14.50;1.00
9323;DHT22;4700;48.822;9.270;2023-05-20T05:10:37;14.60;1.00
9323;DHT22;4700;48.822;9.270;2023-05-20T05:13:22;14.90;1.00
9323;DHT22;4700;48.822;9.270;2023-05-20T05:16:09;15.10;1.00
9323;DHT22;4700;48.822;9.270;2023-05-20T05:18:55;15.20;1.00
9323;DHT22;4700;48.822;9.270;2023-05-20T05:21:40;15.60;1.00
9323;DHT22;4700;48.822;9.270;2023-05-20T05:24:29;15.50;1.00
9323;DHT22;4700;48.822;9.270;2023-05-20T05:27:15;15.60;1.00
9323;DHT22;4700;48.822;9.270;2023-05-20T05:30:01;15.90;1.00
9323;DHT22;4700;48.822;9.270;2023-05-20T05:32:48;16.10;1.00
9323;DHT22;4700;48.822;9.270;2023-05-20T05:35:34;16.10;1.00
9323;DHT22;4700;48.822;9.270;2023-05-20T05:38:19;16.00;1.00
9323;DHT22;4700;48.822;9.270;2023-05-20T05:41:05;16.00;1.00
9323;DHT22;4700;48.822;9.270;2023-05-20T05:43:51;16.00;1.00
9323;DHT22;4700;48.822;9.270;2023-05-20T05:46:37;16.00;1.00
9323;DHT22;4700;48.822;9.270;2023-05-20T05:52:10;16.70;1.00
9323;DHT22;4700;48.822;9.270;2023-05-20T05:54:55;16.80;1.00
9323;DHT22;4700;48.822;9.270;2023-05-20T05:57:41;17.40;1.00
9323;DHT22;4700;48.822;9.270;2023-05-20T06:00:26;17.40;1.00
9323;DHT22;4700;48.822;9.270;2023-05-20T06:03:12;17.70;1.00
9323;DHT22;4700;48.822;9.270;2023-05-20T06:06:02;17.90;1.00
9323;DHT22;4700;48.822;9.270;2023-05-20T06:08:48;17.90;1.00
9323;DHT22;4700;48.822;9.270;2023-05-20T06:11:34;17.50;1.00
9323;DHT22;4700;48.822;9.270;2023-05-20T06:14:19;18.00;1.00
9323;DHT22;4700;48.822;9.270;2023-05-20T06:17:05;17.90;1.00
9323;DHT22;4700;48.822;9.270;2023-05-20T06:19:51;18.50;1.00
9323;DHT22;4700;48.822;9.270;2023-05-20T06:22:38;19.80;1.00
9323;DHT22;4700;48.822;9.270;2023-05-20T06:25:26;21.90;1.00
9323;DHT22;4700;48.822;9.270;2023-05-20T06:28:13;23.30;1.00
9323;DHT22;4700;48.822;9.270;2023-05-20T06:30:59;23.40;1.00
9323;DHT22;4700;48.822;9.270;2023-05-20T06:33:48;24.00;1.00
9323;DHT22;4700;48.822;9.270;2023-05-20T06:36:33;24.50;1.00
9323;DHT22;4700;48.822;9.270;2023-05-20T06:39:20;24.80;1.00
9323;DHT22;4700;48.822;9.270;2023-05-20T06:42:06;25.60;1.00
9323;DHT22;4700;48.822;9.270;2023-05-20T06:44:52;25.90;1.00
9323;DHT22;4700;48.822;9.270;2023-05-20T06:47:37;26.50;1.00
9323;DHT22;4700;48.822;9.270;2023-05-20T06:50:23;24.80;1.00
9323;DHT22;4700;48.822;9.270;2023-05-20T06:53:11;23.30;1.00
9323;DHT22;4700;48.822;9.270;2023-05-20T06:55:58;23.40;1.00
9323;DHT22;4700;48.822;9.270;2023-05-20T06:58:44;23.10;1.00
9323;DHT22;4700;48.822;9.270;2023-05-20T07:01:29;23.30;1.00
9323;DHT22;4700;48.822;9.270;2023-05-20T07:04:18;22.70;1.00
9323;DHT22;4700;48.822;9.270;2023-05-20T07:07:04;22.50;1.00
9323;DHT22;4700;48.822;9.270;2023-05-20T07:09:50;21.90;1.00
9323;DHT22;4700;48.822;9.270;2023-05-20T07:12:37;21.90;1.00
9323;DHT22;4700;48.822;9.270;2023-05-20T07:15:23;22.20;1.00
9323;DHT22;4700;48.822;9.270;2023-05-20T07:18:08;22.80;1.00
9323;DHT22;4700;48.822;9.270;2023-05-20T07:20:54;23.00;1.00
9323;DHT22;4700;48.822;9.270;2023-05-20T07:23:41;23.70;1.00
9323;DHT22;4700;48.822;9.270;2023-05-20T07:26:26;23.90;1.00
9323;DHT22;4700;48.822;9.270;2023-05-20T07:29:17;24.70;1.00
9323;DHT22;4700;48.822;9.270;2023-05-20T07:34:49;25.50;1.00
9323;DHT22;4700;48.822;9.270;2023-05-20T07:37:35;26.70;1.00
9323;DHT22;4700;48.822;9.270;2023-05-20T07:40:21;26.30;1.00
9323;DHT22;4700;48.822;9.270;2023-05-20T07:43:07;27.00;1.00
9323;DHT22;4700;48.822;9.270;2023-05-20T07:45:54;25.60;1.00
9323;DHT22;4700;48.822;9.270;2023-05-20T07:48:40;26.80;1.00
9323;DHT22;4700;48.822;9.270;2023-05-20T07:51:25;26.20;1.00
9323;DHT22;4700;48.822;9.270;2023-05-20T07:54:11;24.50;1.00
9323;DHT22;4700;48.822;9.270;2023-05-20T07:56:58;23.00;1.00
9323;DHT22;4700;48.822;9.270;2023-05-20T07:59:45;22.10;1.00
9323;DHT22;4700;48.822;9.270;2023-05-20T08:02:32;22.60;1.00
9323;DHT22;4700;48.822;9.270;2023-05-20T08:05:18;22.70;1.00
9323;DHT22;4700;48.822;9.270;2023-05-20T08:08:04;23.20;1.00
9323;DHT22;4700;48.822;9.270;2023-05-20T08:10:50;23.10;1.00
9323;DHT22;4700;48.822;9.270;2023-05-20T08:13:36;25.20;1.00
9323;DHT22;4700;48.822;9.270;2023-05-20T08:16:22;27.00;1.00
9323;DHT22;4700;48.822;9.270;2023-05-20T08:21:56;27.20;1.00
9323;DHT22;4700;48.822;9.270;2023-05-20T08:24:41;26.40;1.00
9323;DHT22;4700;48.822;9.270;2023-05-20T08:27:27;24.30;1.00
9323;DHT22;4700;48.822;9.270;2023-05-20T08:30:12;24.20;1.00
9323;DHT22;4700;48.822;9.270;2023-05-20T08:32:58;24.00;1.00
9323;DHT22;4700;48.822;9.270;2023-05-20T08:35:45;23.20;1.00
9323;DHT22;4700;48.822;9.270;2023-05-20T08:38:31;22.70;1.00
9323;DHT22;4700;48.822;9.270;2023-05-20T08:41:16;21.60;1.00
9323;DHT22;4700;48.822;9.270;2023-05-20T08:44:03;21.60;1.00
9323;DHT22;4700;48.822;9.270;2023-05-20T08:46:50;20.50;1.00
9323;DHT22;4700;48.822;9.270;2023-05-20T08:49:36;20.50;1.00
9323;DHT22;4700;48.822;9.270;2023-05-20T08:52:24;20.80;1.00
9323;DHT22;4700;48.822;9.270;2023-05-20T08:55:13;21.00;1.00
9323;DHT22;4700;48.822;9.270;2023-05-20T08:58:01;21.40;1.00
9323;DHT22;4700;48.822;9.270;2023-05-20T09:00:47;22.30;1.00
9323;DHT22;4700;48.822;9.270;2023-05-20T09:03:32;22.80;1.00
9323;DHT22;4700;48.822;9.270;2023-05-20T09:06:18;22.80;1.00
9323;DHT22;4700;48.822;9.270;2023-05-20T09:09:05;23.00;1.00
9323;DHT22;4700;48.822;9.270;2023-05-20T09:11:51;23.20;1.00
9323;DHT22;4700;48.822;9.270;2023-05-20T09:14:37;24.90;1.00
9323;DHT22;4700;48.822;9.270;2023-05-20T09:17:22;25.20;1.00
9323;DHT22;4700;48.822;9.270;2023-05-20T09:20:09;26.60;1.00
9323;DHT22;4700;48.822;9.270;2023-05-20T09:22:58;27.70;1.00
9323;DHT22;4700;48.822;9.270;2023-05-20T09:25:49;25.40;1.00
9323;DHT22;4700;48.822;9.270;2023-05-20T09:28:34;26.60;1.00
9323;DHT22;4700;48.822;9.270;2023-05-20T09:31:25;26.10;1.00
9323;DHT22;4700;48.822;9.270;2023-05-20T09:34:12;26.10;1.00
9323;DHT22;4700;48.822;9.270;2023-05-20T09:36:58;27.20;1.00
9323;DHT22;4700;48.822;9.270;2023-05-20T09:39:51;27.00;1.00
9323;DHT22;4700;48.822;9.270;2023-05-20T09:42:49;28.40;1.00
9323;DHT22;4700;48.822;9.270;2023-05-20T09:45:35;30.40;1.00
9323;DHT22;4700;48.822;9.270;2023-05-20T09:48:22;29.50;1.00
9323;DHT22;4700;48.822;9.270;2023-05-20T09:51:09;29.90;1.00
9323;DHT22;4700;48.822;9.270;2023-05-20T09:53:57;31.80;1.00
9323;DHT22;4700;48.822;9.270;2023-05-20T09:56:43;31.90;1.00
9323;DHT22;4700;48.822;9.270;2023-05-20T09:59:32;32.00;1.00
9323;DHT22;4700;48.822;9.270;2023-05-20T10:02:19;32.00;1.00
9323;DHT22;4700;48.822;9.270;2023-05-20T10:05:09;30.50;1.00
9323;DHT22;4700;48.822;9.270;2023-05-20T10:11:12;25.40;1.00
9323;DHT22;4700;48.822;9.270;2023-05-20T10:14:29;26.20;1.00
9323;DHT22;4700;48.822;9.270;2023-05-20T10:17:23;25.80;1.00
9323;DHT22;4700;48.822;9.270;2023-05-20T10:20:09;25.50;1.00
9323;DHT22;4700;48.822;9.270;2023-05-20T10:22:56;25.70;1.00
9323;DHT22;4700;48.822;9.270;2023-05-20T10:25:49;26.90;1.00
9323;DHT22;4700;48.822;9.270;2023-05-20T10:28:36;27.50;1.00
9323;DHT22;4700;48.822;9.270;2023-05-20T10:31:22;27.30;1.00
9323;DHT22;4700;48.822;9.270;2023-05-20T10:34:15;27.50;1.00
9323;DHT22;4700;48.822;9.270;2023-05-20T10:37:01;27.50;1.00
9323;DHT22;4700;48.822;9.270;2023-05-20T10:39:47;27.00;1.00
9323;DHT22;4700;48.822;9.270;2023-05-20T10:42:33;26.20;1.00
9323;DHT22;4700;48.822;9.270;2023-05-20T10:45:26;26.90;1.00
9323;DHT22;4700;48.822;9.270;2023-05-20T10:48:19;27.10;1.00
9323;DHT22;4700;48.822;9.270;2023-05-20T10:51:12;26.00;1.00
9323;DHT22;4700;48.822;9.270;2023-05-20T10:53:58;24.60;1.00
9323;DHT22;4700;48.822;9.270;2023-05-20T10:56:50;24.80;1.00
9323;DHT22;4700;48.822;9.270;2023-05-20T10:59:36;23.60;1.00
9323;DHT22;4700;48.822;9.270;2023-05-20T11:02:22;23.80;1.00
9323;DHT22;4700;48.822;9.270;2023-05-20T11:05:10;23.50;1.00
9323;DHT22;4700;48.822;9.270;2023-05-20T11:08:01;23.70;1.00
9323;DHT22;4700;48.822;9.270;2023-05-20T11:10:47;23.40;1.00
9323;DHT22;4700;48.822;9.270;2023-05-20T11:13:33;23.60;1.00
9323;DHT22;4700;48.822;9.270;2023-05-20T11:16:19;24.10;1.00
9323;DHT22;4700;48.822;9.270;2023-05-20T11:19:06;24.70;1.00
9323;DHT22;4700;48.822;9.270;2023-05-20T11:21:52;24.70;1.00
9323;DHT22;4700;48.822;9.270;2023-05-20T11:24:39;24.30;1.00
9323;DHT22;4700;48.822;9.270;2023-05-20T11:27:25;24.20;1.00
9323;DHT22;4700;48.822;9.270;2023-05-20T11:30:13;24.70;1.00
9323;DHT22;4700;48.822;9.270;2023-05-20T11:33:00;25.20;1.00
9323;DHT22;4700;48.822;9.270;2023-05-20T11:35:48;25.10;1.00
9323;DHT22;4700;48.822;9.270;2023-05-20T11:38:34;25.20;1.00
9323;DHT22;4700;48.822;9.270;2023-05-20T11:41:24;25.10;1.00
9323;DHT22;4700;48.822;9.270;2023-05-20T11:44:10;24.70;1.00
9323;DHT22;4700;48.822;9.270;2023-05-20T11:46:59;24.20;1.00
9323;DHT22;4700;48.822;9.270;2023-05-20T11:49:48;24.20;1.00
9323;DHT22;4700;48.822;9.270;2023-05-20T11:52:33;24.30;1.00
9323;DHT22;4700;48.822;9.270;2023-05-20T11:55:19;24.40;1.00
9323;DHT22;4700;48.822;9.270;2023-05-20T11:58:07;24.60;1.00
9323;DHT22;4700;48.822;9.270;2023-05-20T12:00:52;24.70;1.00
9323;DHT22;4700;48.822;9.270;2023-05-20T12:03:38;24.50;1.00
9323;DHT22;4700;48.822;9.270;2023-05-20T12:06:24;24.40;1.00
9323;DHT22;4700;48.822;9.270;2023-05-20T12:09:09;24.40;1.00
9323;DHT22;4700;48.822;9.270;2023-05-20T12:11:57;24.20;1.00
9323;DHT22;4700;48.822;9.270;2023-05-20T12:14:44;23.90;1.00
9323;DHT22;4700;48.822;9.270;2023-05-20T12:17:31;24.00;1.00
9323;DHT22;4700;48.822;9.270;2023-05-20T12:20:18;24.10;1.00
9323;DHT22;4700;48.822;9.270;2023-05-20T12:23:04;23.80;1.00
9323;DHT22;4700;48.822;9.270;2023-05-20T12:25:49;23.80;1.00
9323;DHT22;4700;48.822;9.270;2023-05-20T12:28:35;24.20;1.00
9323;DHT22;4700;48.822;9.270;2023-05-20T12:31:23;24.80;1.00
9323;DHT22;4700;48.822;9.270;2023-05-20T12:34:09;25.70;1.00
9323;DHT22;4700;48.822;9.270;2023-05-20T12:36:55;25.20;1.00
9323;DHT22;4700;48.822;9.270;2023-05-20T12:39:41;25.80;1.00
9323;DHT22;4700;48.822;9.270;2023-05-20T12:42:26;25.50;1.00
9323;DHT22;4700;48.822;9.270;2023-05-20T12:45:12;25.30;1.00
9323;DHT22;4700;48.822;9.270;2023-05-20T12:47:59;24.60;1.00
9323;DHT22;4700;48.822;9.270;2023-05-20T12:50:45;25.00;1.00
9323;DHT22;4700;48.822;9.270;2023-05-20T12:53:30;25.40;1.00
9323;DHT22;4700;48.822;9.270;2023-05-20T12:56:16;24.90;1.00
9323;DHT22;4700;48.822;9.270;2023-05-20T12:59:02;24.70;1.00
9323;DHT22;4700;48.822;9.270;2023-05-20T13:01:47;25.00;1.00
9323;DHT22;4700;48.822;9.270;2023-05-20T13:04:34;24.70;1.00
9323;DHT22;4700;48.822;9.270;2023-05-20T13:07:20;24.50;1.00
9323;DHT22;4700;48.822;9.270;2023-05-20T13:10:07;23.60;1.00
9323;DHT22;4700;48.822;9.270;2023-05-20T13:12:54;24.40;1.00
9323;DHT22;4700;48.822;9.270;2023-05-20T13:15:40;24.50;1.00
9323;DHT22;4700;48.822;9.270;2023-05-20T13:18:26;25.00;1.00
9323;DHT22;4700;48.822;9.270;2023-05-20T13:21:13;25.30;1.00
9323;DHT22;4700;48.822;9.270;2023-05-20T13:23:59;24.90;1.00
9323;DHT22;4700;48.822;9.270;2023-05-20T13:26:45;24.30;1.00
9323;DHT22;4700;48.822;9.270;2023-05-20T13:29:31;24.30;1.00
9323;DHT22;4700;48.822;9.270;2023-05-20T13:32:17;23.60;1.00
9323;DHT22;4700;48.822;9.270;2023-05-20T13:35:03;23.40;1.00
9323;DHT22;4700;48.822;9.270;2023-05-20T13:37:50;23.30;1.00
9323;DHT22;4700;48.822;9.270;2023-05-20T13:40:36;23.20;1.00
9323;DHT22;4700;48.822;9.270;2023-05-20T13:43:21;23.20;1.00
9323;DHT22;4700;48.822;9.270;2023-05-20T13:46:07;23.70;1.00
9323;DHT22;4700;48.822;9.270;2023-05-20T13:48:53;24.30;1.00
9323;DHT22;4700;48.822;9.270;2023-05-20T13:51:39;24.70;1.00
9323;DHT22;4700;48.822;9.270;2023-05-20T13:54:26;24.70;1.00
9323;DHT22;4700;48.822;9.270;2023-05-20T13:57:12;24.70;1.00
9323;DHT22;4700;48.822;9.270;2023-05-20T13:59:57;25.00;1.00
9323;DHT22;4700;48.822;9.270;2023-05-20T14:02:43;24.60;1.00
9323;DHT22;4700;48.822;9.270;2023-05-20T14:05:29;24.40;1.00
9323;DHT22;4700;48.822;9.270;2023-05-20T14:08:15;24.20;1.00
9323;DHT22;4700;48.822;9.270;2023-05-20T14:11:02;24.40;1.00
9323;DHT22;4700;48.822;9.270;2023-05-20T14:13:48;24.40;1.00
9323;DHT22;4700;48.822;9.270;2023-05-20T14:16:34;24.00;1.00
9323;DHT22;4700;48.822;9.270;2023-05-20T14:19:19;24.20;1.00
9323;DHT22;4700;48.822;9.270;2023-05-20T14:22:05;24.30;1.00
9323;DHT22;4700;48.822;9.270;2023-05-20T14:24:50;24.00;1.00
9323;DHT22;4700;48.822;9.270;2023-05-20T14:27:38;23.40;1.00
9323;DHT22;4700;48.822;9.270;2023-05-20T14:30:23;23.60;1.00
9323;DHT22;4700;48.822;9.270;2023-05-20T14:33:10;23.60;1.00
9323;DHT22;4700;48.822;9.270;2023-05-20T14:35:55;23.70;1.00
9323;DHT22;4700;48.822;9.270;2023-05-20T14:38:41;23.40;1.00
9323;DHT22;4700;48.822;9.270;2023-05-20T14:41:27;23.30;1.00
9323;DHT22;4700;48.822;9.270;2023-05-20T14:44:14;23.40;1.00
9323;DHT22;4700;48.822;9.270;2023-05-20T14:47:00;23.30;1.00
9323;DHT22;4700;48.822;9.270;2023-05-20T14:49:46;23.40;1.00
9323;DHT22;4700;48.822;9.270;2023-05-20T14:52:33;23.30;1.00
9323;DHT22;4700;48.822;9.270;2023-05-20T14:55:19;23.20;1.00
9323;DHT22;4700;48.822;9.270;2023-05-20T14:58:04;23.20;1.00
9323;DHT22;4700;48.822;9.270;2023-05-20T15:00:51;23.30;1.00
9323;DHT22;4700;48.822;9.270;2023-05-20T15:03:37;23.20;1.00
9323;DHT22;4700;48.822;9.270;2023-05-20T15:08:53;23.30;1.00
9323;DHT22;4700;48.822;9.270;2023-05-20T15:11:39;23.40;1.00
9323;DHT22;4700;48.822;9.270;2023-05-20T15:14:28;23.50;1.00
9323;DHT22;4700;48.822;9.270;2023-05-20T15:17:15;23.50;1.00
9323;DHT22;4700;48.822;9.270;2023-05-20T15:20:01;23.40;1.00
9323;DHT22;4700;48.822;9.270;2023-05-20T15:22:48;23.40;1.00
9323;DHT22;4700;48.822;9.270;2023-05-20T15:25:34;23.40;1.00
9323;DHT22;4700;48.822;9.270;2023-05-20T15:28:20;23.40;1.00
9323;DHT22;4700;48.822;9.270;2023-05-20T15:31:05;23.30;1.00
9323;DHT22;4700;48.822;9.270;2023-05-20T15:33:53;23.30;1.00
9323;DHT22;4700;48.822;9.270;2023-05-20T15:36:41;23.30;1.00
9323;DHT22;4700;48.822;9.270;2023-05-20T15:39:26;23.30;1.00
9323;DHT22;4700;48.822;9.270;2023-05-20T15:42:12;23.40;1.00
9323;DHT22;4700;48.822;9.270;2023-05-20T15:45:01;23.30;1.00
9323;DHT22;4700;48.822;9.270;2023-05-20T15:47:47;23.30;1.00
9323;DHT22;4700;48.822;9.270;2023-05-20T15:50:35;23.30;1.00
9323;DHT22;4700;48.822;9.270;2023-05-20T15:53:21;23.30;1.00
9323;DHT22;4700;48.822;9.270;2023-05-20T15:56:09;23.40;1.00
9323;DHT22;4700;48.822;9.270;2023-05-20T15:58:55;23.40;1.00
9323;DHT22;4700;48.822;9.270;2023-05-20T16:01:40;23.30;1.00
9323;DHT22;4700;48.822;9.270;2023-05-20T16:04:26;23.30;1.00
9323;DHT22;4700;48.822;9.270;2023-05-20T16:07:13;23.30;1.00
9323;DHT22;4700;48.822;9.270;2023-05-20T16:09:59;23.30;1.00
9323;DHT22;4700;48.822;9.270;2023-05-20T16:12:44;23.40;1.00
9323;DHT22;4700;48.822;9.270;2023-05-20T16:15:30;23.50;1.00
9323;DHT22;4700;48.822;9.270;2023-05-20T16:18:19;23.40;1.00
9323;DHT22;4700;48.822;9.270;2023-05-20T16:21:06;23.50;1.00
9323;DHT22;4700;48.822;9.270;2023-05-20T16:23:53;23.60;1.00
9323;DHT22;4700;48.822;9.270;2023-05-20T16:26:39;24.00;1.00
9323;DHT22;4700;48.822;9.270;2023-05-20T16:29:24;24.30;1.00
9323;DHT22;4700;48.822;9.270;2023-05-20T16:32:10;24.80;1.00
9323;DHT22;4700;48.822;9.270;2023-05-20T16:34:56;24.90;1.00
9323;DHT22;4700;48.822;9.270;2023-05-20T16:37:41;25.10;1.00
9323;DHT22;4700;48.822;9.270;2023-05-20T16:40:29;25.20;1.00
9323;DHT22;4700;48.822;9.270;2023-05-20T16:43:15;25.20;1.00
9323;DHT22;4700;48.822;9.270;2023-05-20T16:46:00;25.10;1.00
9323;DHT22;4700;48.822;9.270;2023-05-20T16:48:47;25.00;1.00
9323;DHT22;4700;48.822;9.270;2023-05-20T16:51:33;25.00;1.00
9323;DHT22;4700;48.822;9.270;2023-05-20T16:54:18;24.90;1.00
9323;DHT22;4700;48.822;9.270;2023-05-20T16:57:06;24.50;1.00
9323;DHT22;4700;48.822;9.270;2023-05-20T16:59:51;24.30;1.00
9323;DHT22;4700;48.822;9.270;2023-05-20T17:02:37;24.30;1.00
9323;DHT22;4700;48.822;9.270;2023-05-20T17:05:23;24.20;1.00
9323;DHT22;4700;48.822;9.270;2023-05-20T17:08:09;24.10;1.00
9323;DHT22;4700;48.822;9.270;2023-05-20T17:10:55;24.10;1.00
9323;DHT22;4700;48.822;9.270;2023-05-20T17:16:28;24.10;1.00
9323;DHT22;4700;48.822;9.270;2023-05-20T17:19:14;24.20;1.00
9323;DHT22;4700;48.822;9.270;2023-05-20T17:22:00;24.10;1.00
9323;DHT22;4700;48.822;9.270;2023-05-20T17:24:45;24.00;1.00
9323;DHT22;4700;48.822;9.270;2023-05-20T17:27:31;23.80;1.00
9323;DHT22;4700;48.822;9.270;2023-05-20T17:30:18;23.60;1.00
9323;DHT22;4700;48.822;9.270;2023-05-20T17:33:04;23.20;1.00
9323;DHT22;4700;48.822;9.270;2023-05-20T17:35:50;23.20;1.00
9323;DHT22;4700;48.822;9.270;2023-05-20T17:38:35;23.10;1.00
9323;DHT22;4700;48.822;9.270;2023-05-20T17:41:21;22.90;1.00
9323;DHT22;4700;48.822;9.270;2023-05-20T17:44:07;22.80;1.00
9323;DHT22;4700;48.822;9.270;2023-05-20T17:46:54;22.70;1.00
9323;DHT22;4700;48.822;9.270;2023-05-20T17:49:39;22.60;1.00
9323;DHT22;4700;48.822;9.270;2023-05-20T17:52:25;22.50;1.00
9323;DHT22;4700;48.822;9.270;2023-05-20T17:55:11;22.50;1.00
9323;DHT22;4700;48.822;9.270;2023-05-20T17:57:57;22.40;1.00
9323;DHT22;4700;48.822;9.270;2023-05-20T18:00:44;22.30;1.00
9323;DHT22;4700;48.822;9.270;2023-05-20T18:03:32;22.20;1.00
9323;DHT22;4700;48.822;9.270;2023-05-20T18:06:17;22.10;1.00
9323;DHT22;4700;48.822;9.270;2023-05-20T18:09:03;22.00;1.00
9323;DHT22;4700;48.822;9.270;2023-05-20T18:11:49;21.90;1.00
9323;DHT22;4700;48.822;9.270;2023-05-20T18:14:35;21.80;1.00
9323;DHT22;4700;48.822;9.270;2023-05-20T18:17:21;21.70;1.00
9323;DHT22;4700;48.822;9.270;2023-05-20T18:20:09;21.60;1.00
9323;DHT22;4700;48.822;9.270;2023-05-20T18:22:54;21.50;1.00
9323;DHT22;4700;48.822;9.270;2023-05-20T18:25:42;21.40;1.00
9323;DHT22;4700;48.822;9.270;2023-05-20T18:28:27;21.20;1.00
9323;DHT22;4700;48.822;9.270;2023-05-20T18:31:13;21.20;1.00
9323;DHT22;4700;48.822;9.270;2023-05-20T18:33:59;21.10;1.00
9323;DHT22;4700;48.822;9.270;2023-05-20T18:36:47;20.90;1.00
9323;DHT22;4700;48.822;9.270;2023-05-20T18:39:33;20.80;1.00
9323;DHT22;4700;48.822;9.270;2023-05-20T18:42:18;20.80;1.00
9323;DHT22;4700;48.822;9.270;2023-05-20T18:45:05;20.60;1.00
9323;DHT22;4700;48.822;9.270;2023-05-20T18:47:52;20.60;1.00
9323;DHT22;4700;48.822;9.270;2023-05-20T18:50:38;20.50;1.00
9323;DHT22;4700;48.822;9.270;2023-05-20T18:53:25;20.40;1.00
9323;DHT22;4700;48.822;9.270;2023-05-20T18:56:11;20.20;1.00
9323;DHT22;4700;48.822;9.270;2023-05-20T18:58:57;20.10;1.00